Time;durP1;ratioP1;P1;durP2;ratioP2;P2;SDS_P1;SDS_P2;PMS_P1;PMS_P2;Temp;Humidity;BMP_temperature;BMP_pressure;BME280_temperature;BME280_humidity;BME280_pressure;Samples;Min_cycle;Max_cycle;Signal;HPM_P1;HPM_P2
2021/04/16 00:01:37;;;;;;;30.70;19.60;;;;;;;2.08;87.94;98716.89;468726;1196;103206;-41
2021/04/16 00:11:42;;;;;;;38.75;21.80;;;;;;;2.06;88.09;98716.26;469201;1196;103749;-41
2021/04/16 00:21:46;;;;;;;39.23;23.07;;;;;;;2.06;87.85;98711.05;468080;1196;103286;-41
2021/04/16 00:31:51;;;;;;;35.70;19.87;;;;;;;2.08;87.70;98708.26;468556;1196;103222;-40
2021/04/16 00:41:56;;;;;;;32.85;18.95;;;;;;;2.10;88.06;98701.07;468218;1196;103194;-41
2021/04/16 00:52:03;;;;;;;41.47;21.53;;;;;;;2.06;88.08;98690.17;468359;1195;103248;-41
2021/04/16 01:02:08;;;;;;;34.67;21.80;;;;;;;2.01;88.29;98689.08;468564;1196;103201;-41
2021/04/16 01:12:14;;;;;;;33.45;19.95;;;;;;;1.98;88.17;98679.81;468802;1196;103235;-42
2021/04/16 01:22:22;;;;;;;35.93;23.43;;;;;;;2.00;88.45;98680.45;470199;1159;103194;-39
2021/04/16 01:32:32;;;;;;;34.00;19.73;;;;;;;2.02;88.22;98675.05;469073;1196;105068;-40
2021/04/16 01:42:36;;;;;;;36.65;21.10;;;;;;;2.00;88.52;98672.63;468858;1196;103699;-41
2021/04/16 01:52:40;;;;;;;36.90;22.83;;;;;;;2.02;88.60;98678.47;468977;1196;103571;-41
2021/04/16 02:02:44;;;;;;;31.80;20.13;;;;;;;1.95;88.50;98669.73;468981;1196;103227;-41
2021/04/16 02:12:50;;;;;;;29.13;19.33;;;;;;;1.98;88.65;98681.61;468758;1195;103520;-40
2021/04/16 02:22:55;;;;;;;31.50;19.70;;;;;;;1.97;88.60;98674.77;468830;1196;103606;-41
2021/04/16 02:32:59;;;;;;;31.10;17.73;;;;;;;1.93;88.57;98666.48;468321;1196;103494;-41
2021/04/16 02:43:04;;;;;;;27.97;17.20;;;;;;;1.92;88.59;98662.26;468751;1196;103238;-41
2021/04/16 02:53:11;;;;;;;26.67;15.17;;;;;;;1.92;88.66;98653.63;470361;1196;103239;-41
2021/04/16 03:03:16;;;;;;;20.67;12.90;;;;;;;1.88;88.92;98645.31;468343;1196;103210;-40
2021/04/16 03:13:20;;;;;;;29.60;19.37;;;;;;;1.84;89.14;98659.69;468191;1195;103242;-41
2021/04/16 03:23:24;;;;;;;21.90;15.37;;;;;;;1.87;89.04;98654.13;469476;1196;103580;-41
2021/04/16 03:33:30;;;;;;;26.03;15.43;;;;;;;1.87;88.60;98648.09;470649;1195;103581;-40
2021/04/16 03:43:35;;;;;;;24.27;14.20;;;;;;;1.81;88.98;98653.02;469590;1195;104618;-41
2021/04/16 03:53:41;;;;;;;20.13;12.20;;;;;;;1.83;88.83;98653.66;470140;1196;103224;-40
2021/04/16 04:03:46;;;;;;;16.53;11.17;;;;;;;1.86;89.27;98652.50;470118;1196;103204;-41
2021/04/16 04:13:50;;;;;;;20.20;12.95;;;;;;;1.90;88.78;98642.56;468849;1196;103153;-39
2021/04/16 04:23:54;;;;;;;17.33;11.63;;;;;;;1.85;89.18;98656.09;470607;1195;103331;-40
2021/04/16 04:33:59;;;;;;;14.47;10.57;;;;;;;1.80;89.24;98659.22;470295;1196;103584;-39
2021/04/16 04:44:02;;;;;;;17.60;10.20;;;;;;;1.87;88.79;98656.73;469536;1195;103596;-40
2021/04/16 04:54:10;;;;;;;24.70;14.23;;;;;;;1.87;89.28;98659.34;469912;1195;104319;-40
2021/04/16 05:04:15;;;;;;;21.87;13.30;;;;;;;1.86;89.31;98649.89;468943;1196;103156;-40
2021/04/16 05:14:19;;;;;;;24.20;13.00;;;;;;;1.94;89.03;98657.68;470042;1196;103900;-40
2021/04/16 05:24:24;;;;;;;16.27;11.67;;;;;;;1.98;88.98;98651.13;468850;1196;103184;-41
2021/04/16 05:34:28;;;;;;;15.60;9.73;;;;;;;2.05;89.27;98659.87;468679;1196;103207;-40
2021/04/16 05:44:32;;;;;;;20.43;10.27;;;;;;;2.11;89.52;98661.77;468678;1196;103558;-41
2021/04/16 05:54:37;;;;;;;15.70;10.25;;;;;;;2.18;89.15;98651.47;468460;1196;103251;-40
2021/04/16 06:04:41;;;;;;;16.90;12.00;;;;;;;2.25;89.27;98657.59;469421;1194;104756;-41
2021/04/16 06:14:58;;;;;;;19.53;10.40;;;;;;;2.27;89.33;98666.05;469765;1195;103517;-40
2021/04/16 06:25:03;;;;;;;15.63;8.27;;;;;;;2.33;88.99;98646.27;469397;1196;103552;-41
2021/04/16 06:35:13;;;;;;;21.43;12.57;;;;;;;2.40;89.01;98645.41;468507;1196;103225;-41
2021/04/16 06:45:22;;;;;;;13.08;8.63;;;;;;;2.52;89.37;98639.75;468781;1196;103501;-40
2021/04/16 06:55:25;;;;;;;10.40;8.53;;;;;;;2.55;89.51;98642.00;470189;1196;103517;-40
2021/04/16 07:05:34;;;;;;;11.27;8.73;;;;;;;2.61;89.60;98647.34;469943;1196;103596;-40
2021/04/16 07:15:43;;;;;;;18.30;10.93;;;;;;;2.73;89.31;98666.78;470392;1196;103185;-40
2021/04/16 07:25:54;;;;;;;14.03;10.23;;;;;;;2.80;89.22;98656.42;468842;1196;103241;-40
2021/04/16 07:36:13;;;;;;;13.80;9.70;;;;;;;2.91;89.61;98661.22;468968;1196;103345;-40
2021/04/16 07:46:42;;;;;;;16.70;10.55;;;;;;;2.98;89.61;98662.11;469385;1196;103223;-40
2021/04/16 07:56:49;;;;;;;15.47;11.83;;;;;;;3.04;89.36;98663.19;468454;1196;103552;-40
2021/04/16 08:06:55;;;;;;;18.40;12.67;;;;;;;3.10;89.58;98672.13;468146;1195;103565;-40
2021/04/16 08:16:59;;;;;;;24.10;15.53;;;;;;;;;;468248;1196;103223;-42
2021/04/16 08:27:13;;;;;;;31.37;18.93;;;;;;;3.25;90.07;98667.69;468837;1196;103584;-41
2021/04/16 08:37:29;;;;;;;41.63;23.90;;;;;;;3.38;89.83;98673.09;468649;1196;103207;-40
2021/04/16 08:47:42;;;;;;;37.50;23.73;;;;;;;3.52;89.90;98674.85;469017;1196;103260;-41
2021/04/16 08:57:47;;;;;;;28.60;19.90;;;;;;;3.59;89.94;98683.61;468127;1196;103209;-41
2021/04/16 09:07:51;;;;;;;34.05;21.45;;;;;;;3.61;90.06;98679.00;468501;1196;103543;-40
2021/04/16 09:18:34;;;;;;;27.80;18.90;;;;;;;3.62;90.43;98672.78;469140;1196;103216;-43
2021/04/16 09:28:58;;;;;;;31.77;19.17;;;;;;;3.66;90.10;98688.91;468406;1196;103223;-41
2021/04/16 09:49:34;;;;;;;30.20;18.70;;;;;;;3.68;90.54;98686.91;468648;1196;103223;-42
2021/04/16 09:59:40;;;;;;;35.95;22.95;;;;;;;3.71;90.87;98686.54;468467;1196;103226;-40
2021/04/16 10:09:45;;;;;;;31.77;17.80;;;;;;;3.72;90.60;98680.31;468443;1196;103571;-41
2021/04/16 10:20:08;;;;;;;28.87;18.17;;;;;;;3.68;90.11;98679.88;468841;1196;103672;-41
2021/04/16 12:46:00;;;;;;;17.10;10.83;;;;;;;4.11;88.92;98707.90;469003;1196;103558;-40
2021/04/16 12:56:07;;;;;;;17.87;11.90;;;;;;;4.07;88.58;98709.27;468708;1196;103654;-40
2021/04/16 13:06:19;;;;;;;18.83;10.23;;;;;;;4.16;88.75;98702.91;468647;1196;103517;-40
2021/04/16 13:16:26;;;;;;;19.05;11.75;;;;;;;4.08;88.61;98698.63;468793;1196;103239;-40
2021/04/16 13:26:31;;;;;;;18.80;11.70;;;;;;;3.97;89.08;98699.91;468819;1196;103277;-40
2021/04/16 13:36:36;;;;;;;43.25;22.50;;;;;;;3.88;88.80;98708.88;468770;1196;103584;-40
2021/04/16 13:46:42;;;;;;;19.30;12.33;;;;;;;3.88;89.04;98705.45;468372;1196;103257;-42
2021/04/16 13:56:48;;;;;;;22.07;11.47;;;;;;;3.91;89.00;98705.88;468336;1196;103257;-40
2021/04/16 14:17:15;;;;;;;25.50;14.85;;;;;;;3.87;89.05;98701.21;469193;1195;104636;-41
2021/04/16 14:27:19;;;;;;;21.30;12.63;;;;;;;3.85;88.99;98703.20;468883;1196;103510;-39
2021/04/16 14:37:23;;;;;;;32.85;16.35;;;;;;;3.77;89.08;98717.18;468671;1196;103149;-40
2021/04/16 14:47:28;;;;;;;14.53;11.10;;;;;;;3.76;88.95;98722.59;468306;1195;103363;-41
2021/04/16 14:57:35;;;;;;;17.97;10.40;;;;;;;3.67;89.18;98727.13;468946;1195;103574;-39
2021/04/16 15:07:39;;;;;;;13.43;8.20;;;;;;;3.64;89.06;98730.92;468533;1196;103230;-42
2021/04/16 15:17:43;;;;;;;22.27;13.27;;;;;;;3.62;88.90;98726.88;468293;1196;103557;-40
2021/04/16 15:27:48;;;;;;;18.67;11.87;;;;;;;3.57;89.02;98732.66;468269;1195;103564;-40
2021/04/16 15:48:16;;;;;;;21.00;12.80;;;;;;;3.48;88.75;98732.92;468730;1196;103552;-40
2021/04/16 15:58:26;;;;;;;18.27;12.20;;;;;;;3.39;88.93;98742.67;468272;1196;104613;-40
2021/04/16 16:08:30;;;;;;;20.95;11.50;;;;;;;3.29;88.66;98729.86;468214;1196;103223;-40
2021/04/16 16:18:38;;;;;;;20.50;12.85;;;;;;;3.26;88.92;98732.02;468360;1196;103514;-42
2021/04/16 16:28:45;;;;;;;16.98;10.75;;;;;;;3.22;89.22;98730.77;469047;1196;104705;-40
2021/04/16 16:38:49;;;;;;;18.10;12.37;;;;;;;3.15;89.15;98727.26;468606;1196;103204;-40
2021/04/16 16:48:53;;;;;;;14.40;10.10;;;;;;;3.12;89.27;98725.01;468943;1196;103208;-40
2021/04/16 16:58:59;;;;;;;17.90;10.95;;;;;;;3.11;89.40;98731.22;468465;1196;103603;-41
2021/04/16 17:09:05;;;;;;;16.75;10.25;;;;;;;3.08;89.17;98735.82;469204;1196;103226;-40
2021/04/16 17:19:09;;;;;;;11.07;8.73;;;;;;;3.11;89.49;98739.88;468900;1196;103555;-41
2021/04/16 17:29:21;;;;;;;14.83;10.83;;;;;;;3.11;89.43;98745.09;468863;1196;103207;-41
2021/04/16 17:39:25;;;;;;;14.33;10.60;;;;;;;3.14;89.44;98752.58;468802;1196;103273;-41
2021/04/16 17:59:48;;;;;;;15.70;11.60;;;;;;;3.17;89.16;98764.47;468147;1196;103209;-40
2021/04/16 18:09:56;;;;;;;15.43;12.17;;;;;;;3.27;89.39;98773.66;467881;1196;103580;-40
2021/04/16 18:20:00;;;;;;;16.90;12.17;;;;;;;3.28;89.29;98779.69;468287;1196;103261;-41
2021/04/16 18:30:08;;;;;;;14.50;11.10;;;;;;;3.27;89.27;98778.88;468170;1196;103593;-42
2021/04/16 18:40:15;;;;;;;15.53;10.90;;;;;;;3.30;89.19;98777.70;468069;1196;103291;-40
2021/04/16 18:50:22;;;;;;;13.35;9.90;;;;;;;3.33;89.24;98772.15;468353;1195;103206;-42
2021/04/16 19:00:27;;;;;;;12.55;9.85;;;;;;;3.30;89.27;98769.87;468492;1196;103587;-42
2021/04/16 19:10:33;;;;;;;11.63;9.33;;;;;;;3.35;89.27;98773.59;469197;1196;103216;-42
2021/04/16 19:20:39;;;;;;;15.30;11.97;;;;;;;3.25;89.18;98780.05;468807;1196;103708;-42
2021/04/16 19:30:44;;;;;;;21.20;13.40;;;;;;;3.18;89.22;98789.61;468635;1196;103523;-42
2021/04/16 19:40:51;;;;;;;14.43;10.27;;;;;;;3.25;88.90;98778.25;468946;1196;103213;-42
2021/04/16 20:22:44;;;;;;;28.03;13.70;;;;;;;3.21;89.24;98770.95;468281;1196;103565;-42
2021/04/16 20:32:48;;;;;;;33.83;20.07;;;;;;;3.22;88.87;98768.16;469144;1196;103591;-42
2021/04/16 20:42:53;;;;;;;13.70;11.27;;;;;;;3.28;88.81;98779.69;468596;1196;103242;-43
2021/04/16 20:52:58;;;;;;;10.55;6.90;;;;;;;3.27;88.97;98772.84;468676;1196;103217;-43
2021/04/16 21:03:23;;;;;;;9.20;7.87;;;;;;;3.24;89.13;98775.81;468492;1196;103172;-42
2021/04/16 21:13:30;;;;;;;9.77;6.13;;;;;;;3.27;88.89;98772.84;469209;1196;103198;-42
2021/04/16 21:23:36;;;;;;;9.80;7.00;;;;;;;3.24;89.09;98774.02;469396;1195;103225;-43
2021/04/16 21:33:43;;;;;;;17.77;8.97;;;;;;;3.18;88.77;98768.70;468314;1195;103593;-42
2021/04/16 21:43:50;;;;;;;10.10;6.13;;;;;;;2.97;88.65;98777.22;469006;1196;103692;-42
2021/04/16 21:53:58;;;;;;;24.00;10.63;;;;;;;2.69;88.62;98774.37;469055;1196;103260;-43
2021/04/16 22:04:02;;;;;;;35.03;15.47;;;;;;;2.65;88.86;98783.54;468322;1196;103533;-41
2021/04/16 22:14:10;;;;;;;23.00;9.67;;;;;;;2.69;88.72;98785.63;468608;1196;103137;-42
2021/04/16 22:24:24;;;;;;;9.93;6.00;;;;;;;2.81;88.75;98775.55;468243;1196;104556;-42
2021/04/16 22:34:31;;;;;;;12.87;7.43;;;;;;;2.74;88.66;98770.23;468746;1195;103233;-42
2021/04/16 22:44:42;;;;;;;15.45;9.65;;;;;;;2.73;88.65;98767.80;468963;1196;103562;-43
2021/04/16 22:54:46;;;;;;;10.47;7.17;;;;;;;2.81;88.55;98759.89;468943;1196;103208;-41
2021/04/16 23:04:51;;;;;;;12.70;9.20;;;;;;;2.86;88.84;98751.55;469244;1196;103207;-41
2021/04/16 23:14:56;;;;;;;31.00;18.60;;;;;;;2.93;88.62;98750.66;468982;1196;103549;-43
2021/04/16 23:25:01;;;;;;;34.73;20.93;;;;;;;3.07;88.57;98738.58;469203;1196;103207;-42
2021/04/16 23:35:04;;;;;;;34.65;20.50;;;;;;;3.08;88.73;98737.63;469043;1196;103213;-41
2021/04/16 23:45:07;;;;;;;28.03;16.60;;;;;;;3.06;88.44;98726.52;468154;1196;103523;-42
2021/04/16 23:55:16;;;;;;;17.80;12.40;;;;;;;3.06;88.24;98729.13;468361;1196;103597;-42
